createdAt,value
2022-08-19T00:01:13.622Z,99076.20
2022-08-19T00:04:37.753Z,99081.59
2022-08-19T00:07:44.148Z,99083.98
2022-08-19T00:10:49.096Z,99090.35
2022-08-19T00:13:52.037Z,99086.34
2022-08-19T00:16:55.774Z,99087.70
2022-08-19T00:19:58.917Z,99082.83
2022-08-19T00:23:01.841Z,99079.29
2022-08-19T00:26:06.185Z,99075.52
2022-08-19T00:29:11.968Z,99070.71
2022-08-19T00:32:15.031Z,99068.16
2022-08-19T00:35:21.533Z,99069.09
2022-08-19T00:38:35.019Z,99062.42
2022-08-19T00:41:41.994Z,99065.52
2022-08-19T00:44:45.132Z,99064.63
2022-08-19T00:47:48.379Z,99056.24
2022-08-19T00:50:54.476Z,99055.51
2022-08-19T00:53:59.708Z,99050.65
2022-08-19T00:57:06.082Z,99053.99
2022-08-19T01:00:14.011Z,99048.92
2022-08-19T01:03:20.817Z,99039.02
2022-08-19T01:06:23.771Z,99038.23
2022-08-19T01:09:26.637Z,99041.09
2022-08-19T01:12:30.001Z,99038.54
2022-08-19T01:15:44.063Z,99039.38
2022-08-19T01:18:47.668Z,99051.97
2022-08-19T01:22:00.518Z,99064.42
2022-08-19T01:25:21.113Z,99067.27
2022-08-19T01:28:39.949Z,99054.80
2022-08-19T01:31:43.436Z,99064.69
2022-08-19T01:34:48.310Z,99052.06
2022-08-19T01:38:01.396Z,99046.45
2022-08-19T01:41:11.249Z,99047.59
2022-08-19T01:44:17.744Z,99049.79
2022-08-19T01:47:22.011Z,99046.11
2022-08-19T01:50:25.443Z,99038.77
2022-08-19T01:53:33.775Z,99025.73
2022-08-19T01:56:37.591Z,99013.23
2022-08-19T01:59:42.506Z,98992.69
2022-08-19T02:02:45.796Z,98972.57
2022-08-19T02:05:48.541Z,98967.78
2022-08-19T02:08:51.494Z,98961.92
2022-08-19T02:11:57.129Z,98959.04
2022-08-19T02:15:02.319Z,98950.98
2022-08-19T02:18:05.314Z,98947.91
2022-08-19T02:21:08.391Z,98943.90
2022-08-19T02:24:11.644Z,98945.20
2022-08-19T02:27:15.207Z,98948.13
2022-08-19T02:30:18.857Z,98953.55
2022-08-19T02:33:21.702Z,98948.92
2022-08-19T02:36:26.277Z,98948.55
2022-08-19T02:39:29.560Z,98955.89
2022-08-19T02:42:33.463Z,98956.02
2022-08-19T02:45:40.564Z,98947.48
2022-08-19T02:48:45.043Z,98943.70
2022-08-19T02:51:48.491Z,98939.52
2022-08-19T02:54:51.483Z,98939.05
2022-08-19T02:57:54.335Z,98938.40
2022-08-19T03:00:58.464Z,98941.31
2022-08-19T03:04:05.260Z,98947.84
2022-08-19T03:07:10.714Z,98948.71
2022-08-19T03:10:14.906Z,98952.33
2022-08-19T03:13:21.291Z,98951.41
2022-08-19T03:16:26.892Z,98947.11
2022-08-19T03:19:30.006Z,98949.19
2022-08-19T03:22:33.180Z,98949.27
2022-08-19T03:25:45.204Z,98946.48
2022-08-19T03:28:58.446Z,98947.94
2022-08-19T03:32:05.154Z,98947.31
2022-08-19T03:35:08.197Z,98955.10
2022-08-19T03:38:11.269Z,98959.83
2022-08-19T03:41:23.986Z,98960.12
2022-08-19T03:44:38.875Z,98958.83
2022-08-19T03:47:41.884Z,98961.98
2022-08-19T03:50:46.675Z,98979.12
2022-08-19T03:53:50.200Z,98980.11
2022-08-19T03:56:55.735Z,98984.72
2022-08-19T04:00:04.109Z,98982.34
2022-08-19T04:03:17.109Z,98980.21
2022-08-19T04:06:24.509Z,98979.26
2022-08-19T04:09:27.563Z,98981.02
2022-08-19T04:12:30.542Z,98991.66
2022-08-19T04:15:40.256Z,98993.31
2022-08-19T04:18:43.966Z,98996.92
2022-08-19T04:21:50.353Z,98996.08
2022-08-19T04:24:53.268Z,98991.36
2022-08-19T04:27:57.462Z,98992.66
2022-08-19T04:31:01.257Z,98993.77
2022-08-19T04:34:08.069Z,98994.53
2022-08-19T04:37:14.059Z,98998.16
2022-08-19T04:40:36.271Z,99002.20
2022-08-19T04:43:39.721Z,99013.96
2022-08-19T04:46:51.321Z,99018.54
2022-08-19T04:49:54.783Z,99015.50
2022-08-19T04:52:57.803Z,99009.98
2022-08-19T04:56:04.621Z,99008.44
2022-08-19T04:59:09.837Z,99004.79
2022-08-19T05:02:12.803Z,99008.11
2022-08-19T05:05:17.579Z,99000.02
2022-08-19T05:08:30.935Z,98994.73
2022-08-19T05:11:41.091Z,98984.33
2022-08-19T05:14:46.246Z,98977.63
2022-08-19T05:18:09.363Z,98973.35
2022-08-19T05:21:37.084Z,98970.36
2022-08-19T05:24:56.466Z,98978.54
2022-08-19T05:28:03.176Z,98983.53
2022-08-19T05:31:06.009Z,98980.18
2022-08-19T05:34:20.298Z,98985.04
2022-08-19T05:37:23.927Z,98994.77
2022-08-19T05:40:27.219Z,98999.47
2022-08-19T05:43:32.459Z,98998.10
2022-08-19T05:46:36.071Z,98989.88
2022-08-19T05:49:39.840Z,98998.98
2022-08-19T05:52:43.651Z,99008.64
2022-08-19T05:55:49.547Z,99012.08
2022-08-19T05:58:54.307Z,99015.23
2022-08-19T06:01:58.214Z,99016.68
2022-08-19T06:05:01.071Z,99014.33
2022-08-19T06:08:04.402Z,99013.15
2022-08-19T06:11:23.768Z,99016.61
2022-08-19T06:14:32.345Z,99017.77
2022-08-19T06:17:37.082Z,99019.83
2022-08-19T06:20:55.640Z,99023.92
2022-08-19T06:23:59.908Z,99022.19
2022-08-19T06:27:04.104Z,99026.01
2022-08-19T06:30:08.096Z,99028.29
2022-08-19T06:33:11.188Z,99026.70
2022-08-19T06:36:32.830Z,99030.73
2022-08-19T06:39:40.975Z,99033.75
2022-08-19T06:42:54.997Z,99029.16
2022-08-19T06:46:00.219Z,99037.11
2022-08-19T06:49:05.066Z,99038.70
2022-08-19T06:52:09.262Z,99046.17
2022-08-19T06:55:17.135Z,99046.48
2022-08-19T06:58:21.971Z,99054.02
2022-08-19T07:01:25.453Z,99060.51
2022-08-19T07:04:39.430Z,99056.69
2022-08-19T07:07:47.508Z,99055.95
2022-08-19T07:10:51.075Z,99063.52
2022-08-19T07:13:54.366Z,99061.73
2022-08-19T07:16:58.538Z,99062.73
2022-08-19T07:20:06.955Z,99067.27
2022-08-19T07:23:16.013Z,99076.96
2022-08-19T07:26:28.323Z,99082.71
2022-08-19T07:29:34.517Z,99083.63
2022-08-19T07:32:38.350Z,99086.84
2022-08-19T07:35:42.165Z,99090.96
2022-08-19T07:38:49.252Z,99095.25
2022-08-19T07:41:52.818Z,99097.58
2022-08-19T07:44:55.847Z,99099.57
2022-08-19T07:47:59.924Z,99101.86
2022-08-19T07:51:06.259Z,99103.95
2022-08-19T07:54:09.500Z,99105.05
2022-08-19T07:57:13.369Z,99108.84
2022-08-19T08:00:20.438Z,99120.95
2022-08-19T08:03:47.806Z,99119.13
2022-08-19T08:07:09.896Z,99130.42
2022-08-19T08:10:20.835Z,99136.59
2022-08-19T08:13:29.923Z,99139.08
2022-08-19T08:16:39.599Z,99147.47
2022-08-19T08:19:44.095Z,99150.49
2022-08-19T08:23:07.750Z,99155.70
2022-08-19T08:26:12.507Z,99157.09
2022-08-19T08:29:16.840Z,99156.04
2022-08-19T08:32:19.646Z,99165.22
2022-08-19T08:35:24.571Z,99164.23
2022-08-19T08:38:28.233Z,99168.41
2022-08-19T08:41:56.773Z,99170.80
2022-08-19T08:45:07.835Z,99166.67
2022-08-19T08:48:24.201Z,99163.02
2022-08-19T08:51:36.296Z,99157.79
2022-08-19T08:54:49.205Z,99159.64
2022-08-19T08:58:17.613Z,99159.04
2022-08-19T09:01:22.018Z,99163.25
2022-08-19T09:04:26.467Z,99167.36
2022-08-19T09:07:49.334Z,99164.13
2022-08-19T09:10:56.724Z,99160.13
2022-08-19T09:14:47.317Z,99169.06
2022-08-19T09:17:43.357Z,99174.19
2022-08-19T09:20:48.601Z,99170.48
2022-08-19T09:23:52.112Z,99179.67
2022-08-19T09:26:55.411Z,99186.52
2022-08-19T09:30:00.381Z,99171.80
2022-08-19T09:33:04.507Z,99182.92
2022-08-19T09:36:10.615Z,99180.13
2022-08-19T09:39:16.080Z,99185.52
2022-08-19T09:42:30.344Z,99191.35
2022-08-19T09:45:38.831Z,99190.83
2022-08-19T09:48:43.051Z,99180.17
2022-08-19T09:51:51.166Z,99174.55
2022-08-19T09:54:54.663Z,99169.33
2022-08-19T09:57:57.575Z,99164.86
2022-08-19T10:01:02.600Z,99165.41
2022-08-19T10:04:19.819Z,99157.85
2022-08-19T10:07:36.226Z,99164.54
2022-08-19T10:10:39.655Z,99166.17
2022-08-19T10:13:47.038Z,99172.77
2022-08-19T10:16:50.922Z,99170.87
2022-08-19T10:19:55.793Z,99166.80
2022-08-19T10:23:02.597Z,99150.05
2022-08-19T10:26:09.207Z,99149.17
2022-08-19T10:29:13.246Z,99153.30
2022-08-19T10:32:35.461Z,99155.96
2022-08-19T10:35:42.609Z,99160.92
2022-08-19T10:39:08.012Z,99151.43
2022-08-19T10:42:14.588Z,99163.52
2022-08-19T10:45:18.353Z,99169.24
2022-08-19T10:48:21.845Z,99184.65
2022-08-19T10:51:45.811Z,99188.31
2022-08-19T10:55:09.945Z,99200.77
2022-08-19T10:58:15.879Z,99202.23
2022-08-19T11:01:18.837Z,99205.80
2022-08-19T11:04:28.792Z,99211.98
2022-08-19T11:07:34.320Z,99218.35
2022-08-19T11:10:37.804Z,99223.52
2022-08-19T11:13:42.923Z,99216.06
2022-08-19T11:16:45.998Z,99215.65
2022-08-19T11:19:50.203Z,99219.34
2022-08-19T11:22:54.888Z,99223.39
2022-08-19T11:26:00.875Z,99225.48
2022-08-19T11:29:07.281Z,99220.95
2022-08-19T11:32:11.699Z,99217.74
2022-08-19T11:35:15.509Z,99218.31
2022-08-19T11:38:19.702Z,99220.65
2022-08-19T11:41:24.572Z,99222.67
2022-08-19T11:44:28.922Z,99227.96
2022-08-19T11:47:31.998Z,99233.28
2022-08-19T11:50:34.988Z,99236.32
2022-08-19T11:53:38.758Z,99244.33
2022-08-19T11:56:42.858Z,99247.98
2022-08-19T12:00:39.823Z,99258.48
2022-08-19T12:03:47.283Z,99260.33
2022-08-19T12:06:51.436Z,99265.76
2022-08-19T12:10:55.298Z,99263.84
2022-08-19T12:13:58.476Z,99268.42
2022-08-19T12:17:03.492Z,99266.22
2022-08-19T12:20:08.139Z,99271.81
2022-08-19T12:23:11.587Z,99278.67
2022-08-19T12:26:19.946Z,99272.30
2022-08-19T12:29:29.435Z,99277.70
2022-08-19T12:32:32.836Z,99273.29
2022-08-19T12:35:36.464Z,99275.16
2022-08-19T12:38:41.451Z,99287.14
2022-08-19T12:41:51.273Z,99288.48
2022-08-19T12:45:24.151Z,99291.56
2022-08-19T12:48:33.951Z,99292.98
2022-08-19T12:51:40.554Z,99293.48
2022-08-19T12:55:07.099Z,99287.64
2022-08-19T12:58:11.516Z,99290.86
2022-08-19T13:01:17.584Z,99288.80
2022-08-19T13:04:24.924Z,99287.64
2022-08-19T13:07:27.782Z,99276.54
2022-08-19T13:10:35.952Z,99267.89
2022-08-19T13:13:43.626Z,99265.55
2022-08-19T13:16:47.603Z,99266.91
2022-08-19T13:19:51.917Z,99268.86
2022-08-19T13:22:56.015Z,99263.88
2022-08-19T13:26:10.589Z,99279.67
2022-08-19T13:29:32.428Z,99272.79
2022-08-19T13:32:58.107Z,99273.66
2022-08-19T13:36:02.117Z,99274.98
2022-08-19T13:39:06.899Z,99276.20
2022-08-19T13:42:11.882Z,99273.77
2022-08-19T13:45:17.684Z,99270.98
2022-08-19T13:48:20.640Z,99271.63
2022-08-19T13:51:23.628Z,99272.53
2022-08-19T13:54:28.338Z,99277.23
2022-08-19T13:57:31.626Z,99275.91
2022-08-19T14:00:38.576Z,99269.82
2022-08-19T14:03:41.534Z,99271.11
2022-08-19T14:06:44.487Z,99281.23
2022-08-19T14:09:47.312Z,99277.41
2022-08-19T14:13:04.044Z,99275.29
2022-08-19T14:16:10.738Z,99274.49
2022-08-19T14:19:13.868Z,99284.61
2022-08-19T14:22:18.511Z,99285.83
2022-08-19T14:25:28.556Z,99282.34
2022-08-19T14:28:31.484Z,99284.27
2022-08-19T14:31:34.489Z,99285.30
2022-08-19T14:34:38.352Z,99279.90
2022-08-19T14:37:45.410Z,99274.70
2022-08-19T14:40:49.998Z,99273.48
2022-08-19T14:43:54.588Z,99260.40
2022-08-19T14:46:59.948Z,99260.98
2022-08-19T14:50:18.055Z,99267.23
2022-08-19T14:53:22.143Z,99267.36
2022-08-19T14:56:28.257Z,99263.27
2022-08-19T14:59:31.236Z,99259.30
2022-08-19T15:02:35.521Z,99256.73
2022-08-19T15:05:38.650Z,99256.77
2022-08-19T15:08:44.432Z,99257.00
2022-08-19T15:11:48.495Z,99263.73
2022-08-19T15:14:56.829Z,99264.93
2022-08-19T15:18:03.808Z,99264.84
2022-08-19T15:21:08.416Z,99261.64
2022-08-19T15:24:11.598Z,99261.79
2022-08-19T15:27:15.193Z,99265.02
2022-08-19T15:30:25.068Z,99265.14
2022-08-19T15:33:28.190Z,99262.36
2022-08-19T15:36:31.171Z,99265.16
2022-08-19T15:39:47.690Z,99266.63
2022-08-19T15:42:51.025Z,99264.19
2022-08-19T15:45:53.992Z,99261.34
2022-08-19T15:49:00.233Z,99264.95
2022-08-19T15:52:04.142Z,99266.95
2022-08-19T15:55:08.031Z,99264.63
2022-08-19T15:58:32.603Z,99271.58
2022-08-19T16:01:55.225Z,99266.74
2022-08-19T16:05:18.053Z,99270.35
2022-08-19T16:08:21.584Z,99266.95
2022-08-19T16:11:29.679Z,99266.44
2022-08-19T16:14:36.267Z,99265.48
2022-08-19T16:17:39.652Z,99268.89
2022-08-19T16:20:42.732Z,99269.98
2022-08-19T16:23:47.130Z,99269.23
2022-08-19T16:26:50.821Z,99262.31
2022-08-19T16:29:53.893Z,99258.73
2022-08-19T16:32:56.867Z,99262.55
2022-08-19T16:36:00.422Z,99264.89
2022-08-19T16:39:15.500Z,99266.17
2022-08-19T16:42:18.575Z,99268.80
2022-08-19T16:45:22.265Z,99275.63
2022-08-19T16:48:28.298Z,99275.83
2022-08-19T16:51:33.949Z,99272.02
2022-08-19T16:54:38.624Z,99279.52
2022-08-19T16:57:41.930Z,99277.25
2022-08-19T17:00:46.252Z,99281.36
2022-08-19T17:03:52.273Z,99283.52
2022-08-19T17:06:55.947Z,99286.36
2022-08-19T17:09:58.936Z,99286.02
2022-08-19T17:13:05.177Z,99289.81
2022-08-19T17:16:13.171Z,99285.67
2022-08-19T17:19:16.553Z,99281.64
2022-08-19T17:22:19.831Z,99284.23
2022-08-19T17:25:26.078Z,99294.35
2022-08-19T17:28:30.705Z,99306.49
2022-08-19T17:31:35.095Z,99315.07
2022-08-19T17:34:39.497Z,99314.99
2022-08-19T17:37:43.393Z,99321.85
2022-08-19T17:40:47.714Z,99329.80
2022-08-19T17:43:50.973Z,99327.99
2022-08-19T17:46:53.953Z,99330.75
2022-08-19T17:49:58.931Z,99330.64
2022-08-19T17:53:02.628Z,99333.61
2022-08-19T17:56:05.940Z,99346.34
2022-08-19T17:59:13.825Z,99348.05
2022-08-19T18:02:20.667Z,99336.90
2022-08-19T18:05:30.156Z,99343.45
2022-08-19T18:08:33.582Z,99346.76
2022-08-19T18:11:36.563Z,99347.88
2022-08-19T18:14:41.845Z,99353.02
2022-08-19T18:17:45.978Z,99361.66
2022-08-19T18:20:49.056Z,99366.23
2022-08-19T18:23:52.026Z,99369.14
2022-08-19T18:27:03.491Z,99365.96
2022-08-19T18:30:08.846Z,99359.02
2022-08-19T18:33:15.475Z,99368.53
2022-08-19T18:36:32.052Z,99371.09
2022-08-19T18:40:00.784Z,99371.76
2022-08-19T18:43:23.744Z,99363.64
2022-08-19T18:46:45.654Z,99344.54
2022-08-19T18:49:51.385Z,99340.14
2022-08-19T18:52:54.356Z,99341.46
2022-08-19T18:55:58.557Z,99344.19
2022-08-19T18:59:02.451Z,99347.13
2022-08-19T19:02:05.849Z,99340.63
2022-08-19T19:05:09.538Z,99333.25
2022-08-19T19:08:14.055Z,99339.82
2022-08-19T19:11:26.696Z,99345.55
2022-08-19T19:14:50.553Z,99353.23
2022-08-19T19:17:54.976Z,99361.27
2022-08-19T19:20:58.175Z,99361.66
2022-08-19T19:24:02.150Z,99358.00
2022-08-19T19:27:08.840Z,99359.00
2022-08-19T19:30:14.646Z,99368.86
2022-08-19T19:33:18.541Z,99370.36
2022-08-19T19:36:24.288Z,99364.89
2022-08-19T19:39:41.077Z,99382.85
2022-08-19T19:42:52.443Z,99387.10
2022-08-19T19:45:55.720Z,99389.86
2022-08-19T19:49:00.306Z,99392.50
2022-08-19T19:52:04.447Z,99398.30
2022-08-19T19:55:13.331Z,99399.44
2022-08-19T19:58:22.764Z,99404.50
2022-08-19T20:01:33.722Z,99399.23
2022-08-19T20:04:40.977Z,99394.52
2022-08-19T20:08:05.538Z,99399.78
2022-08-19T20:11:13.740Z,99410.12
2022-08-19T20:14:21.827Z,99420.68
2022-08-19T20:17:27.821Z,99427.39
2022-08-19T20:20:35.338Z,99420.39
2022-08-19T20:23:38.824Z,99441.01
2022-08-19T20:26:53.610Z,99445.01
2022-08-19T20:30:00.405Z,99440.02
2022-08-19T20:33:15.726Z,99434.77
2022-08-19T20:36:24.857Z,99431.76
2022-08-19T20:39:29.058Z,99437.14
2022-08-19T20:42:34.494Z,99449.55
2022-08-19T20:45:44.823Z,99447.37
2022-08-19T20:48:58.816Z,99442.88
2022-08-19T20:52:10.453Z,99429.25
2022-08-19T20:55:19.068Z,99431.08
2022-08-19T20:58:32.727Z,99435.48
2022-08-19T21:01:40.353Z,99442.54
2022-08-19T21:04:52.396Z,99446.14
2022-08-19T21:08:09.277Z,99445.00
2022-08-19T21:11:28.782Z,99448.69
2022-08-19T21:15:02.938Z,99446.02
2022-08-19T21:18:16.188Z,99442.11
2022-08-19T21:21:20.663Z,99445.90
2022-08-19T21:24:26.311Z,99445.64
2022-08-19T21:27:34.759Z,99448.61
2022-08-19T21:30:37.928Z,99447.42
2022-08-19T21:33:41.476Z,99449.02
2022-08-19T21:36:44.564Z,99445.02
2022-08-19T21:39:49.591Z,99441.23
2022-08-19T21:42:53.058Z,99430.19
2022-08-19T21:45:55.877Z,99428.98
2022-08-19T21:48:58.884Z,99423.20
2022-08-19T21:52:02.226Z,99415.40
2022-08-19T21:55:07.869Z,99407.00
2022-08-19T21:58:12.588Z,99406.54
2022-08-19T22:01:15.597Z,99410.66
2022-08-19T22:04:20.761Z,99418.34
2022-08-19T22:07:24.258Z,99418.79
2022-08-19T22:10:30.259Z,99421.73
2022-08-19T22:13:39.950Z,99422.56
2022-08-19T22:16:43.713Z,99416.02
2022-08-19T22:19:46.707Z,99423.28
2022-08-19T22:22:57.617Z,99414.42
2022-08-19T22:26:01.718Z,99408.73
2022-08-19T22:29:11.023Z,99400.94
2022-08-19T22:32:27.947Z,99396.48
2022-08-19T22:35:35.912Z,99391.30
2022-08-19T22:38:39.047Z,99387.11
2022-08-19T22:41:42.215Z,99377.40
2022-08-19T22:44:46.166Z,99374.31
2022-08-19T22:47:48.958Z,99367.92
2022-08-19T22:51:11.740Z,99364.48
2022-08-19T22:54:15.335Z,99358.90
2022-08-19T22:57:19.735Z,99354.77
2022-08-19T23:00:24.909Z,99353.34
2022-08-19T23:03:28.350Z,99351.64
2022-08-19T23:06:34.460Z,99358.43
2022-08-19T23:09:41.534Z,99365.73
2022-08-19T23:12:48.123Z,99372.21
2022-08-19T23:15:51.579Z,99372.52
2022-08-19T23:18:56.155Z,99380.05
2022-08-19T23:21:59.597Z,99380.67
2022-08-19T23:25:08.046Z,99379.30
2022-08-19T23:28:29.603Z,99382.05
2022-08-19T23:31:32.798Z,99375.17
2022-08-19T23:34:35.857Z,99373.81
2022-08-19T23:37:38.895Z,99372.14
2022-08-19T23:40:42.003Z,99368.41
2022-08-19T23:43:45.355Z,99373.17
2022-08-19T23:46:54.352Z,99375.70
2022-08-19T23:49:59.158Z,99382.70
2022-08-19T23:53:02.673Z,99390.08
2022-08-19T23:56:07.551Z,99400.02
2022-08-19T23:59:10.330Z,99397.52
